Time;durP1;ratioP1;P1;durP2;ratioP2;P2;SDS_P1;SDS_P2;PMS_P1;PMS_P2;Temp;Humidity;BMP_temperature;BMP_pressure;BME280_temperature;BME280_humidity;BME280_pressure;Samples;Min_cycle;Max_cycle;Signal;HPM_P1;HPM_P2
2022/07/05 00:01:58;;;;;;;2.25;1.92;;;19.90;53.90;;;20.32;46.08;97904.44;5027355;28;20047;-39
2022/07/05 00:04:26;;;;;;;2.75;1.95;;;19.90;53.60;;;20.32;45.88;97904.44;5026983;28;20574;-39
2022/07/05 00:09:41;;;;;;;2.30;1.88;;;19.90;53.00;;;20.30;45.90;97901.13;5026453;28;20050;-37
2022/07/05 00:12:09;;;;;;;6.20;2.38;;;19.90;53.20;;;20.26;46.13;97902.59;5027142;28;20054;-37
2022/07/05 00:14:37;;;;;;;2.17;1.90;;;19.80;53.40;;;20.24;46.33;97894.69;5027723;28;20053;-37
2022/07/05 00:17:05;;;;;;;3.25;2.38;;;19.80;53.60;;;20.20;46.23;97898.03;5025780;28;20086;-37
2022/07/05 00:19:33;;;;;;;3.22;2.22;;;19.80;53.90;;;20.15;46.27;97895.19;5027029;28;20065;-37
2022/07/05 00:22:01;;;;;;;2.65;1.95;;;19.80;53.80;;;20.15;46.06;97897.88;5028483;28;20058;-37
2022/07/05 00:24:29;;;;;;;2.20;1.90;;;19.70;53.40;;;20.11;45.94;97899.34;5027809;28;20051;-37
2022/07/05 00:26:58;;;;;;;7.72;2.10;;;19.70;53.40;;;20.04;46.28;97892.09;5041595;28;20221;-38
2022/07/05 00:29:26;;;;;;;2.35;1.98;;;19.70;53.50;;;20.01;45.99;97897.94;5026761;28;20055;-38
2022/07/05 00:31:53;;;;;;;3.10;2.20;;;19.60;53.30;;;19.99;45.80;97896.50;5025205;28;20049;-38
2022/07/05 00:34:21;;;;;;;4.57;2.17;;;19.60;53.10;;;19.96;45.84;97903.16;5026650;28;20169;-38
2022/07/05 00:36:49;;;;;;;3.13;2.53;;;19.60;52.90;;;19.96;46.22;97896.94;5025027;28;20057;-38
2022/07/05 00:39:17;;;;;;;3.38;2.10;;;19.60;53.30;;;19.95;46.22;97896.09;5026108;28;20061;-38
2022/07/05 00:41:45;;;;;;;3.40;1.92;;;19.60;53.10;;;19.96;45.55;97895.03;5026281;28;20270;-39
2022/07/05 00:44:14;;;;;;;2.67;1.80;;;19.60;52.40;;;19.93;45.34;97900.91;5024368;28;20061;-38
2022/07/05 00:46:44;;;;;;;2.47;1.75;;;19.60;52.20;;;19.94;45.17;97896.31;5025231;28;20048;-38
2022/07/05 00:49:12;;;;;;;2.15;1.90;;;19.60;52.10;;;19.86;45.47;97898.22;5026109;28;20049;-38
2022/07/05 00:51:40;;;;;;;5.22;1.80;;;19.50;52.50;;;19.78;45.57;97903.03;5026568;28;20048;-39
2022/07/05 00:54:29;;;;;;;4.43;2.45;;;19.40;52.70;;;19.79;45.60;97894.72;5025997;28;20046;-38
2022/07/05 00:56:58;;;;;;;3.97;2.08;;;19.40;52.60;;;19.81;45.82;97902.59;5026172;28;20191;-38
2022/07/05 00:59:28;;;;;;;2.75;2.00;;;19.40;52.60;;;19.82;45.67;97909.66;5024899;28;20053;-38
2022/07/05 01:01:57;;;;;;;3.22;2.17;;;19.40;52.50;;;19.83;45.56;97911.31;5026700;28;20083;-38
2022/07/05 01:04:25;;;;;;;2.85;2.00;;;19.50;52.50;;;19.80;45.58;97909.88;5025613;28;20057;-38
2022/07/05 01:06:53;;;;;;;2.90;2.03;;;19.40;52.40;;;19.78;45.68;97914.66;5025589;28;20045;-38
2022/07/05 01:09:23;;;;;;;2.78;1.83;;;19.40;52.60;;;19.76;45.83;97921.34;5026450;28;20339;-38
2022/07/05 01:11:51;;;;;;;3.40;2.33;;;19.40;52.80;;;19.72;45.78;97915.53;5026325;28;20041;-38
2022/07/05 01:14:23;;;;;;;2.60;1.85;;;19.30;53.20;;;19.60;45.93;97912.63;5024927;28;20259;-38
2022/07/05 01:16:54;;;;;;;3.00;1.92;;;19.20;53.50;;;19.51;46.25;97910.38;5024848;28;20076;-38
2022/07/05 01:19:24;;;;;;;4.75;2.60;;;19.10;53.80;;;19.47;46.34;97910.78;5025541;28;20053;-38
2022/07/05 01:21:52;;;;;;;2.50;2.20;;;19.00;53.70;;;19.43;46.38;97914.94;5026248;28;20053;-38
2022/07/05 01:24:20;;;;;;;1.92;1.83;;;19.00;53.90;;;19.42;46.46;97915.16;5026739;28;20053;-38
2022/07/05 01:26:50;;;;;;;2.17;1.95;;;19.00;53.90;;;19.38;46.48;97906.66;5025328;28;20061;-38
2022/07/05 01:29:18;;;;;;;2.13;1.90;;;19.00;53.90;;;19.37;46.58;97912.28;5023578;28;20049;-38
2022/07/05 01:31:46;;;;;;;1.80;1.70;;;19.00;53.90;;;19.37;46.67;97906.88;5025557;28;20049;-38
2022/07/05 01:34:14;;;;;;;3.42;2.00;;;19.00;53.90;;;19.34;46.74;97910.81;5025905;28;20352;-37
2022/07/05 01:36:42;;;;;;;3.05;1.90;;;19.00;54.10;;;19.31;46.88;97913.09;5024961;28;20483;-37
2022/07/05 01:39:10;;;;;;;3.85;2.20;;;18.90;54.30;;;19.28;46.73;97914.34;5024164;28;20054;-38
2022/07/05 01:41:38;;;;;;;2.33;1.90;;;18.90;54.30;;;19.27;46.82;97910.00;5026397;28;20068;-38
2022/07/05 01:44:06;;;;;;;3.22;1.98;;;18.90;54.30;;;19.25;46.99;97909.38;5025895;28;20049;-38
2022/07/05 01:46:38;;;;;;;2.67;2.05;;;18.90;54.40;;;19.19;47.20;97910.22;5025650;28;20053;-37
2022/07/05 01:49:11;;;;;;;5.20;1.98;;;18.80;54.70;;;19.16;47.24;97905.25;5041027;28;20247;-38
2022/07/05 01:51:54;;;;;;;2.22;2.03;;;18.80;55.00;;;19.08;47.87;97903.59;5025910;28;20064;-37
2022/07/05 01:54:23;;;;;;;2.55;2.33;;;18.70;55.90;;;18.99;47.69;97910.25;5026802;28;20056;-37
2022/07/05 01:56:51;;;;;;;4.00;2.20;;;18.60;55.30;;;18.97;47.73;97915.03;5024729;28;20053;-37
2022/07/05 01:59:18;;;;;;;2.40;2.00;;;18.50;55.50;;;18.97;47.53;97913.16;5028697;28;20314;-37
2022/07/05 02:01:46;;;;;;;4.90;2.40;;;18.60;55.20;;;19.01;47.47;97918.97;5027793;28;20370;-38
2022/07/05 02:04:16;;;;;;;3.50;2.47;;;18.60;55.00;;;18.96;47.60;97916.03;5027411;28;20061;-38
2022/07/05 02:06:47;;;;;;;2.50;2.22;;;18.60;55.10;;;18.98;47.46;97916.66;5043888;28;20055;-38
2022/07/05 02:09:15;;;;;;;2.25;1.77;;;18.60;54.90;;;18.98;47.48;97908.56;5026736;28;20052;-38
2022/07/05 02:11:43;;;;;;;2.45;2.03;;;18.70;54.90;;;18.98;47.38;97906.72;5029573;28;20045;-38
2022/07/05 02:14:12;;;;;;;2.50;1.70;;;18.60;54.60;;;18.94;47.56;97910.03;5045700;28;20069;-38
2022/07/05 02:16:41;;;;;;;2.15;1.92;;;18.60;54.90;;;18.93;47.55;97914.59;5026780;28;20060;-38
2022/07/05 02:19:09;;;;;;;2.95;2.05;;;18.60;55.00;;;18.87;47.88;97910.03;5029148;28;20050;-38
2022/07/05 02:21:40;;;;;;;2.75;2.40;;;18.50;56.10;;;18.82;47.75;97907.94;5026356;28;20057;-38
2022/07/05 02:24:12;;;;;;;3.17;2.17;;;18.50;55.30;;;18.83;47.67;97911.50;5027056;28;20061;-38
2022/07/05 02:26:49;;;;;;;3.17;2.65;;;18.50;55.10;;;18.86;47.54;97908.38;5028015;28;20052;-38
2022/07/05 02:29:18;;;;;;;3.13;2.13;;;18.50;54.90;;;18.85;47.67;97907.56;5027240;28;20045;-38
2022/07/05 02:31:47;;;;;;;2.72;2.17;;;18.50;54.90;;;18.83;47.66;97906.94;5027004;28;20244;-37
2022/07/05 02:34:15;;;;;;;3.00;2.30;;;18.50;55.00;;;18.81;47.75;97906.31;5028225;28;20065;-38
2022/07/05 02:36:44;;;;;;;4.38;2.40;;;18.50;55.20;;;18.76;47.80;97905.22;5026666;28;20077;-37
2022/07/05 02:39:13;;;;;;;2.92;2.33;;;18.40;55.20;;;18.65;47.98;97910.22;5027702;28;20375;-38
2022/07/05 02:41:41;;;;;;;3.85;2.50;;;18.30;55.80;;;18.60;47.84;97912.69;5028183;28;20172;-37
2022/07/05 02:44:10;;;;;;;3.53;2.25;;;18.20;55.60;;;18.57;47.97;97913.13;5027798;28;20251;-37
2022/07/05 02:46:38;;;;;;;2.33;2.08;;;18.20;55.60;;;18.54;47.99;97908.13;5026364;28;20133;-38
2022/07/05 02:49:06;;;;;;;4.03;2.15;;;18.10;55.60;;;18.54;47.92;97912.69;5028505;28;20042;-38
2022/07/05 02:51:35;;;;;;;2.53;2.00;;;18.10;55.50;;;18.49;47.82;97907.91;5030299;28;20067;-38
2022/07/05 02:54:05;;;;;;;3.67;1.83;;;18.10;55.50;;;18.43;48.01;97916.81;5027558;28;20046;-38
2022/07/05 02:56:35;;;;;;;4.43;2.00;;;18.00;55.70;;;18.35;48.11;97920.53;5028500;28;20275;-38
2022/07/05 02:59:05;;;;;;;2.08;1.90;;;17.90;56.00;;;18.34;48.16;97915.34;5026454;28;20061;-38
2022/07/05 03:01:36;;;;;;;3.45;2.00;;;17.90;55.80;;;18.31;48.23;97919.28;5027234;28;20067;-37
2022/07/05 03:04:09;;;;;;;2.47;1.95;;;17.90;56.00;;;18.30;48.04;97933.81;5025618;28;20057;-38
2022/07/05 03:06:39;;;;;;;2.20;1.90;;;17.90;56.10;;;18.33;47.82;97932.56;5026939;28;20064;-37
2022/07/05 03:09:08;;;;;;;2.97;1.80;;;17.90;55.60;;;18.34;47.79;97923.44;5026052;28;20064;-37
2022/07/05 03:11:37;;;;;;;3.10;2.10;;;18.00;55.10;;;18.30;47.81;97931.13;5025948;28;20057;-37
2022/07/05 03:14:07;;;;;;;2.85;1.77;;;17.90;55.10;;;18.30;47.84;97929.25;5026225;28;20053;-38
2022/07/05 03:16:35;;;;;;;2.67;2.40;;;18.00;55.20;;;18.29;47.87;97926.75;5027340;28;20063;-38
2022/07/05 03:19:03;;;;;;;2.25;2.05;;;17.90;55.40;;;18.24;48.06;97930.06;5025800;28;20061;-37
2022/07/05 03:21:32;;;;;;;4.05;1.88;;;17.90;55.70;;;18.12;48.28;97934.34;5026041;28;20057;-37
2022/07/05 03:24:01;;;;;;;2.58;1.98;;;17.60;56.10;;;18.03;48.55;97930.19;5025437;28;20068;-38
2022/07/05 03:26:29;;;;;;;3.70;2.00;;;17.60;56.20;;;18.04;48.32;97929.97;5027511;28;20348;-37
2022/07/05 03:28:57;;;;;;;2.38;1.75;;;17.60;56.00;;;18.05;48.23;97931.66;5025086;28;20071;-38
2022/07/05 03:31:25;;;;;;;2.45;1.95;;;17.60;55.90;;;18.08;48.06;97930.41;5025915;28;20055;-37
2022/07/05 03:33:56;;;;;;;2.80;1.90;;;17.70;55.60;;;18.07;48.12;97923.38;5025803;28;20061;-37
2022/07/05 03:36:24;;;;;;;1.70;1.60;;;17.70;55.40;;;18.02;48.13;97929.34;5026657;28;20049;-37
2022/07/05 03:38:53;;;;;;;2.00;1.80;;;17.70;55.60;;;18.03;48.12;97928.34;5026351;28;20067;-37
2022/07/05 03:41:21;;;;;;;3.10;1.75;;;17.70;55.50;;;18.08;48.10;97933.94;5026069;28;20068;-38
2022/07/05 03:43:51;;;;;;;4.15;2.05;;;17.80;55.30;;;18.05;48.14;97928.13;5024822;28;20083;-37
2022/07/05 03:46:19;;;;;;;5.05;2.50;;;17.70;55.40;;;18.07;48.26;97942.22;5023842;28;20070;-38
2022/07/05 03:48:47;;;;;;;3.78;2.17;;;17.70;55.50;;;18.07;48.03;97943.06;5025906;28;20049;-37
2022/07/05 03:51:17;;;;;;;2.50;1.83;;;17.80;55.20;;;18.07;47.95;97948.44;5026622;28;20053;-37
2022/07/05 03:53:47;;;;;;;4.13;2.25;;;17.80;55.40;;;18.07;48.09;97944.94;5041751;28;20067;-38
2022/07/05 03:56:19;;;;;;;5.70;2.22;;;17.80;55.60;;;18.07;48.37;97953.84;5025890;28;20394;-37
2022/07/05 03:58:50;;;;;;;2.55;2.10;;;17.80;55.60;;;18.07;48.27;97950.31;5024719;28;20057;-38
2022/07/05 04:01:19;;;;;;;2.88;2.10;;;17.70;55.80;;;18.05;48.40;97953.22;5024656;28;20068;-38
2022/07/05 04:03:48;;;;;;;3.20;2.08;;;17.70;56.30;;;18.03;48.58;97955.28;5025702;28;20061;-37
2022/07/05 04:06:17;;;;;;;3.72;2.28;;;17.60;56.20;;;18.00;48.84;97957.53;5042444;28;20059;-38
2022/07/05 04:08:45;;;;;;;8.90;2.88;;;17.70;56.60;;;18.03;48.90;97960.66;5024255;28;20053;-38
2022/07/05 04:11:15;;;;;;;3.40;2.13;;;17.70;56.60;;;18.06;48.91;97964.81;5024885;28;20049;-38
2022/07/05 04:13:47;;;;;;;3.20;2.10;;;17.70;56.50;;;18.06;48.98;97968.31;5024716;28;20053;-38
2022/07/05 04:16:15;;;;;;;4.57;2.38;;;17.80;56.70;;;18.06;49.10;97971.00;5024950;28;20095;-39
2022/07/05 04:18:43;;;;;;;2.83;2.10;;;17.80;56.80;;;18.11;49.19;97973.13;5026174;28;20348;-39
2022/07/05 04:21:12;;;;;;;5.25;2.50;;;17.80;56.70;;;18.02;49.82;97975.16;5024991;28;20061;-39
2022/07/05 04:23:40;;;;;;;4.03;2.05;;;17.70;57.50;;;17.93;50.02;97980.91;5024828;28;20064;-39
2022/07/05 04:26:09;;;;;;;3.75;2.17;;;17.60;57.90;;;17.94;50.06;97982.59;5026355;28;20053;-39
2022/07/05 04:28:41;;;;;;;3.95;2.10;;;17.60;58.10;;;17.95;50.16;97986.91;5026558;28;20037;-39
2022/07/05 04:31:11;;;;;;;4.07;2.00;;;17.60;58.20;;;17.95;50.25;97992.31;5025324;28;20049;-39
2022/07/05 04:33:44;;;;;;;3.65;1.88;;;17.60;58.20;;;17.96;50.41;97985.91;5023641;28;20247;-39
2022/07/05 04:36:17;;;;;;;2.25;1.88;;;17.70;58.30;;;18.00;50.17;97990.69;5040787;28;20143;-39
2022/07/05 04:38:45;;;;;;;3.20;2.50;;;17.70;58.20;;;18.05;50.21;97988.22;5024661;28;20065;-39
2022/07/05 04:41:14;;;;;;;6.30;2.50;;;17.80;58.00;;;18.05;50.36;97984.72;5025037;28;20124;-39
2022/07/05 04:43:42;;;;;;;6.18;3.10;;;17.80;58.00;;;18.09;50.06;97986.78;5027076;28;20076;-39
2022/07/05 04:46:13;;;;;;;4.90;2.22;;;17.90;57.70;;;18.09;49.75;97985.97;5026216;28;20057;-39
2022/07/05 04:48:42;;;;;;;3.35;1.85;;;17.90;57.30;;;18.14;49.66;97988.88;5024492;28;20258;-39
2022/07/05 04:51:11;;;;;;;3.85;2.00;;;17.90;57.00;;;18.18;49.55;97989.31;5023347;28;20365;-38
2022/07/05 04:53:41;;;;;;;3.60;1.98;;;17.90;56.90;;;18.22;49.33;97985.16;5041076;28;20057;-37
2022/07/05 04:56:09;;;;;;;2.83;1.80;;;18.00;56.60;;;18.29;49.14;97996.81;5026848;28;20049;-37
2022/07/05 04:58:37;;;;;;;2.47;1.83;;;18.20;56.30;;;18.32;49.30;97995.56;5026490;28;20057;-38
2022/07/05 05:01:05;;;;;;;3.50;1.88;;;18.10;56.40;;;18.32;49.31;97992.88;5026143;28;20068;-38
2022/07/05 05:03:34;;;;;;;6.00;2.10;;;18.10;56.60;;;18.27;49.44;97990.78;5026293;28;20060;-38
2022/07/05 05:06:02;;;;;;;3.03;1.75;;;18.10;56.60;;;18.26;49.16;97989.13;5027182;28;20611;-38
2022/07/05 05:08:30;;;;;;;5.63;1.98;;;18.10;56.40;;;18.28;49.48;97992.44;5027175;28;20050;-38
2022/07/05 05:10:58;;;;;;;1.92;1.73;;;18.10;56.60;;;18.32;49.36;97998.25;5027138;28;20129;-39
2022/07/05 05:13:25;;;;;;;2.67;2.47;;;18.10;56.50;;;18.36;49.41;97996.81;5025072;28;20053;-39
2022/07/05 05:15:53;;;;;;;3.70;2.22;;;18.20;56.40;;;18.42;49.39;97993.34;5026091;28;20041;-38
2022/07/05 05:18:25;;;;;;;4.70;2.58;;;18.30;56.40;;;18.44;49.46;97999.34;5025926;28;20064;-39
2022/07/05 05:20:57;;;;;;;2.83;2.10;;;18.30;56.40;;;18.51;49.25;97997.50;5027000;28;20366;-38
2022/07/05 05:23:25;;;;;;;5.13;2.20;;;18.40;56.10;;;18.55;49.10;98000.63;5026038;28;20063;-38
2022/07/05 05:25:53;;;;;;;2.00;1.80;;;18.40;55.80;;;18.55;49.00;97993.34;5026216;28;20053;-38
2022/07/05 05:28:21;;;;;;;2.15;1.90;;;18.40;55.70;;;18.64;48.87;98002.91;5026233;28;20057;-39
2022/07/05 05:30:49;;;;;;;2.47;1.88;;;18.60;55.50;;;18.68;48.52;97997.94;5027368;28;20058;-38
2022/07/05 05:33:16;;;;;;;2.92;2.28;;;18.60;55.10;;;18.74;48.38;98002.53;5029314;28;20076;-38
2022/07/05 05:35:44;;;;;;;2.63;1.98;;;18.70;54.80;;;18.72;48.13;98001.06;5028601;28;20069;-38
2022/07/05 05:38:12;;;;;;;3.58;1.80;;;18.60;54.20;;;18.74;48.03;98007.91;5029257;28;20075;-39
2022/07/05 05:40:44;;;;;;;2.88;1.95;;;18.70;54.40;;;18.81;48.17;98000.72;5049330;28;20048;-39
2022/07/05 05:43:12;;;;;;;4.05;2.65;;;18.70;54.30;;;18.88;47.91;98000.69;5049273;28;20052;-39
2022/07/05 05:45:40;;;;;;;4.85;2.08;;;18.80;54.00;;;18.94;47.66;97999.91;5049470;28;20344;-39
2022/07/05 05:48:08;;;;;;;4.22;2.00;;;18.90;53.90;;;18.96;47.66;98000.53;5049666;28;20067;-39
2022/07/05 05:50:41;;;;;;;2.63;2.03;;;18.90;54.00;;;19.02;47.70;98005.09;5049281;28;20065;-39
2022/07/05 05:53:09;;;;;;;2.70;1.60;;;19.00;53.80;;;19.11;47.41;98000.31;5050063;28;20052;-39
2022/07/05 05:55:36;;;;;;;3.25;1.95;;;19.10;53.60;;;19.18;47.35;98008.41;5050603;28;20386;-40
2022/07/05 05:58:19;;;;;;;2.67;1.90;;;19.10;53.30;;;19.17;46.82;98010.25;5048581;28;20052;-39
2022/07/05 06:00:52;;;;;;;5.57;2.30;;;19.10;52.20;;;19.07;46.82;98005.28;5049950;28;20057;-40
2022/07/05 06:03:22;;;;;;;3.40;2.17;;;19.10;52.70;;;19.01;47.68;98008.00;5048542;28;20061;-40
2022/07/05 06:05:52;;;;;;;4.15;1.90;;;19.00;53.80;;;19.10;47.78;98014.84;5049777;28;20053;-40
2022/07/05 06:08:22;;;;;;;2.03;1.77;;;19.00;53.90;;;19.16;47.20;98015.91;5048725;28;20059;-40
2022/07/05 06:10:51;;;;;;;3.17;2.22;;;19.10;53.20;;;19.16;46.66;98019.41;5048672;28;20051;-40
2022/07/05 06:13:28;;;;;;;4.40;2.35;;;19.10;52.50;;;19.26;46.33;98025.22;5048645;28;20148;-40
2022/07/05 06:15:56;;;;;;;4.47;2.15;;;19.30;52.10;;;19.31;46.36;98024.63;5048917;28;20640;-40
2022/07/05 06:18:24;;;;;;;3.40;1.70;;;19.30;51.90;;;19.31;45.80;98021.06;5049156;28;20041;-40
2022/07/05 06:20:52;;;;;;;4.28;1.60;;;19.30;51.00;;;19.32;45.53;98017.34;5048916;28;20059;-40
2022/07/05 06:23:21;;;;;;;3.70;1.58;;;19.30;51.10;;;19.39;45.62;98031.69;5047518;28;20049;-49
2022/07/05 06:25:56;;;;;;;4.75;1.90;;;19.40;50.80;;;19.39;46.06;98032.50;5030999;28;20321;-51
2022/07/05 06:28:25;;;;;;;2.75;1.80;;;19.40;51.70;;;19.43;46.29;98041.84;5039277;28;20063;-51
2022/07/05 06:30:54;;;;;;;3.78;1.92;;;19.40;52.00;;;19.51;46.64;98046.19;5039265;28;20037;-49
2022/07/05 06:33:23;;;;;;;3.28;2.00;;;19.50;52.60;;;19.50;47.42;98036.41;5040674;28;20885;-48
2022/07/05 06:35:54;;;;;;;7.38;1.92;;;19.60;53.30;;;19.59;47.41;98050.56;5039253;28;20053;-52
2022/07/05 06:38:22;;;;;;;4.95;1.90;;;19.60;53.40;;;19.66;47.34;98044.09;5039272;28;20049;-49
2022/07/05 06:40:50;;;;;;;2.17;1.50;;;19.70;53.10;;;19.72;47.25;98055.97;5038561;28;20053;-48
2022/07/05 06:43:19;;;;;;;2.45;1.92;;;19.80;52.90;;;19.70;47.42;98044.53;5038410;28;20045;-50
2022/07/05 06:46:01;;;;;;;3.50;1.90;;;19.70;53.40;;;19.78;47.41;98046.22;5033152;28;20067;-52
2022/07/05 06:48:32;;;;;;;4.15;1.90;;;19.80;53.50;;;19.85;47.79;98057.81;5039110;28;20068;-52
2022/07/05 06:51:00;;;;;;;4.03;2.53;;;19.90;54.00;;;19.85;47.78;98053.25;5034776;28;20046;-53
2022/07/05 06:53:28;;;;;;;3.25;2.10;;;19.90;54.00;;;19.95;47.77;98051.97;5023795;28;20052;-53
2022/07/05 06:55:56;;;;;;;4.57;2.33;;;20.00;53.90;;;19.99;47.71;98050.53;5024175;28;20052;-51
2022/07/05 06:58:25;;;;;;;3.83;1.90;;;20.00;53.90;;;20.03;47.97;98052.59;5022850;28;20230;-53
2022/07/05 07:00:53;;;;;;;5.30;2.08;;;20.10;54.10;;;20.12;47.95;98053.16;5023053;28;20352;-52
2022/07/05 07:03:42;;;;;;;2.53;1.90;;;20.20;53.80;;;19.98;46.97;98044.28;5021755;28;20351;-49
2022/07/05 07:06:30;;;;;;;3.40;2.67;;;20.10;52.40;;;20.01;46.74;98051.97;5024280;28;20062;-51
2022/07/05 07:11:46;;;;;;;3.33;2.42;;;20.00;53.80;;;20.05;47.94;98049.69;5020033;28;20061;-53
2022/07/05 07:14:16;;;;;;;2.92;2.42;;;20.10;54.30;;;20.01;46.85;98056.56;5017177;28;20362;-51
2022/07/05 07:16:44;;;;;;;2.60;2.20;;;20.10;52.10;;;20.04;46.54;98050.72;5013392;28;20068;-51
2022/07/05 07:19:12;;;;;;;3.92;1.90;;;20.10;52.20;;;19.86;46.46;98054.91;5011817;28;20053;-50
2022/07/05 07:21:42;;;;;;;3.30;1.80;;;20.10;51.40;;;20.05;46.23;98055.09;5010600;28;20344;-49
2022/07/05 07:24:11;;;;;;;3.58;2.53;;;20.20;51.50;;;20.10;46.39;98059.84;5008513;28;20053;-49
2022/07/05 07:29:25;;;;;;;4.40;2.03;;;20.40;50.70;;;20.26;44.36;98053.97;5009291;28;20066;-48
2022/07/05 07:31:53;;;;;;;2.65;1.98;;;20.50;49.00;;;20.29;45.28;98058.94;5008065;28;20064;-50
2022/07/05 07:34:21;;;;;;;4.22;1.80;;;20.50;50.30;;;20.39;45.57;98058.50;5007026;28;20053;-51
2022/07/05 07:36:50;;;;;;;3.95;1.70;;;20.50;50.40;;;20.41;44.66;98056.41;5007407;28;20068;-51
2022/07/05 07:39:18;;;;;;;3.17;1.88;;;20.60;49.10;;;20.55;45.18;98057.16;5007195;28;20049;-52
2022/07/05 07:41:46;;;;;;;3.45;1.92;;;20.70;50.20;;;20.62;45.02;98061.53;5008061;28;20054;-53
2022/07/05 07:44:15;;;;;;;3.75;1.75;;;20.80;49.60;;;20.59;44.51;98061.13;5007150;28;20057;-49
2022/07/05 07:46:43;;;;;;;2.63;1.55;;;20.80;49.00;;;20.45;44.87;98065.75;5007176;28;20057;-49
2022/07/05 07:49:12;;;;;;;3.58;2.03;;;20.80;49.50;;;20.50;45.93;98071.34;5006501;28;20060;-49
2022/07/05 07:51:40;;;;;;;3.33;1.85;;;20.70;50.80;;;20.53;45.78;98075.50;5008165;28;20056;-54
2022/07/05 07:54:09;;;;;;;3.67;1.77;;;20.80;50.50;;;20.55;45.82;98079.66;5007921;28;20481;-53
2022/07/05 07:56:37;;;;;;;3.45;2.65;;;20.70;51.00;;;20.51;45.70;98083.84;5006305;28;20060;-54
2022/07/05 07:59:05;;;;;;;3.20;1.83;;;20.80;50.20;;;20.54;45.33;98075.28;5008055;28;20247;-49
2022/07/05 08:01:33;;;;;;;1.77;1.50;;;20.70;50.40;;;20.58;45.99;98068.41;5033274;28;20045;-54
2022/07/05 08:04:12;;;;;;;2.40;1.98;;;20.80;50.90;;;20.69;46.01;98071.53;5041933;28;20053;-54
2022/07/05 08:06:43;;;;;;;2.55;1.85;;;20.90;50.80;;;20.75;45.73;98081.47;5040528;28;20382;-54
2022/07/05 08:09:12;;;;;;;3.78;2.05;;;21.00;50.40;;;20.85;45.11;98081.81;5040905;28;20241;-50
2022/07/05 08:11:46;;;;;;;2.10;1.90;;;21.10;48.90;;;20.83;44.02;98073.09;5037895;28;20041;-54
2022/07/05 08:14:16;;;;;;;2.92;1.70;;;21.10;48.40;;;20.97;44.46;98077.38;5041560;28;20364;-50
2022/07/05 08:16:47;;;;;;;2.55;1.73;;;21.20;49.00;;;21.05;44.13;98079.00;5055378;28;20037;-54
2022/07/05 08:22:08;;;;;;;3.00;1.80;;;21.30;48.30;;;21.12;43.82;98082.50;5062717;28;20063;-50
2022/07/05 08:24:39;;;;;;;2.85;1.73;;;21.40;47.60;;;21.22;43.67;98085.53;5062083;28;20069;-53
2022/07/05 08:27:07;;;;;;;2.28;2.08;;;21.40;47.60;;;21.23;43.08;98087.22;5061462;28;20071;-52
2022/07/05 08:29:44;;;;;;;3.80;2.13;;;21.40;47.20;;;21.13;41.96;98084.16;5056446;28;20056;-52
2022/07/05 08:32:13;;;;;;;1.95;1.75;;;21.40;45.60;;;21.19;42.75;98079.72;5054475;28;20049;-50
2022/07/05 08:34:41;;;;;;;2.13;1.85;;;21.50;46.80;;;21.30;43.13;98076.31;5050328;28;20048;-54
2022/07/05 08:37:10;;;;;;;2.50;1.80;;;21.50;47.30;;;21.32;42.56;98078.81;5048571;28;20040;-52
2022/07/05 08:39:42;;;;;;;2.00;1.60;;;21.60;46.90;;;21.28;42.34;98074.91;5047413;28;20347;-53
2022/07/05 08:42:11;;;;;;;1.55;1.45;;;21.60;45.90;;;21.20;42.31;98078.69;5047137;28;20069;-53
2022/07/05 08:44:41;;;;;;;3.28;1.85;;;21.50;46.00;;;21.31;42.03;98074.47;5061632;28;20360;-51
2022/07/05 08:47:12;;;;;;;6.10;2.00;;;21.60;46.40;;;21.38;42.11;98069.81;5062040;28;20052;-52
2022/07/05 08:49:40;;;;;;;3.47;1.63;;;21.70;46.00;;;21.47;42.59;98079.34;5035042;28;20057;-51
2022/07/05 08:52:12;;;;;;;3.00;1.73;;;21.70;46.50;;;21.48;42.21;98069.34;5036903;28;20258;-49
2022/07/05 08:54:40;;;;;;;2.28;1.88;;;21.90;45.60;;;21.58;41.91;98075.94;5036805;28;20049;-55
2022/07/05 08:57:09;;;;;;;4.07;1.73;;;21.90;45.70;;;21.65;41.25;98077.75;5038372;28;20049;-52
2022/07/05 08:59:41;;;;;;;4.45;1.70;;;22.00;45.00;;;21.63;40.98;98078.81;5036981;28;20038;-54
2022/07/05 09:02:15;;;;;;;3.17;1.73;;;22.10;44.20;;;21.81;41.45;98077.19;5035231;28;20061;-52
2022/07/05 09:04:45;;;;;;;3.10;1.75;;;22.20;44.90;;;21.87;41.23;98080.88;5036368;28;20060;-53
2022/07/05 09:07:17;;;;;;;2.08;1.75;;;22.30;44.90;;;21.94;41.21;98076.22;5039786;28;20240;-50
2022/07/05 09:09:48;;;;;;;3.63;1.85;;;22.40;44.60;;;21.94;41.70;98077.03;5042052;28;20069;-54
2022/07/05 09:12:16;;;;;;;2.45;1.70;;;22.40;45.40;;;21.94;41.04;98077.03;5041952;28;20045;-51
2022/07/05 09:14:52;;;;;;;2.65;2.33;;;22.40;44.30;;;21.74;39.93;98082.66;5041163;28;20048;-49
2022/07/05 09:17:20;;;;;;;4.20;1.60;;;22.20;42.40;;;21.90;41.46;98083.16;5042031;28;20033;-53
2022/07/05 09:20:09;;;;;;;3.08;1.60;;;22.20;44.90;;;21.94;40.42;98079.75;5041694;28;20075;-52
2022/07/05 09:22:52;;;;;;;3.78;1.60;;;22.40;43.60;;;21.89;39.21;98085.03;5041637;28;20053;-52
2022/07/05 09:25:30;;;;;;;2.85;1.70;;;22.30;42.30;;;21.98;39.46;98082.84;5035605;28;20186;-50
2022/07/05 09:28:02;;;;;;;2.38;1.83;;;22.30;42.90;;;22.03;39.88;98086.56;5024814;28;20049;-53
2022/07/05 09:30:39;;;;;;;4.15;2.40;;;22.40;43.10;;;22.13;39.81;98082.50;5025778;28;20329;-55
2022/07/05 09:33:08;;;;;;;2.80;1.55;;;22.50;43.80;;;22.27;39.97;98085.94;5025709;28;20054;-55
2022/07/05 09:35:41;;;;;;;2.17;1.60;;;22.60;43.30;;;22.29;39.08;98084.63;5026014;28;20351;-51
2022/07/05 09:38:21;;;;;;;2.40;1.73;;;22.80;42.50;;;22.32;39.07;98091.50;5025433;28;20056;-47
2022/07/05 09:40:52;;;;;;;2.97;1.40;;;22.80;41.60;;;22.38;38.81;98096.84;5025570;28;20233;-51
2022/07/05 09:43:26;;;;;;;3.88;2.15;;;22.80;41.50;;;22.48;39.10;98090.06;5025559;28;20053;-49
2022/07/05 09:46:02;;;;;;;3.17;2.15;;;22.90;42.40;;;22.55;39.62;98088.94;5025444;28;20050;-50
2022/07/05 09:48:33;;;;;;;4.53;1.75;;;22.90;42.90;;;22.60;39.52;98091.81;5021885;28;20052;-51
2022/07/05 09:51:13;;;;;;;3.70;1.70;;;23.10;42.40;;;22.73;37.84;98092.69;5025391;28;20049;-50
2022/07/05 09:54:02;;;;;;;3.88;2.53;;;23.20;40.30;;;22.65;38.57;98091.09;5025348;28;20060;-51
2022/07/05 09:56:47;;;;;;;2.65;1.98;;;23.10;41.20;;;22.81;38.90;98086.94;5022300;28;20050;-49
2022/07/05 09:59:19;;;;;;;1.63;1.50;;;23.20;41.40;;;22.80;36.96;98085.28;5019021;28;20046;-50
2022/07/05 10:01:48;;;;;;;5.05;2.10;;;23.20;38.90;;;22.84;37.42;98089.19;5016794;28;20060;-50
2022/07/05 10:04:17;;;;;;;1.92;1.40;;;23.20;39.40;;;22.80;36.96;98096.16;5015059;28;20064;-50
2022/07/05 10:06:46;;;;;;;2.15;1.60;;;23.20;39.30;;;22.78;36.17;98081.97;5013753;28;20056;-53
2022/07/05 10:09:14;;;;;;;2.72;1.80;;;23.20;38.30;;;22.86;36.84;98083.53;5011648;28;20054;-48
2022/07/05 10:11:45;;;;;;;2.33;1.58;;;23.30;39.00;;;23.02;36.96;98084.78;5010210;28;20054;-49
2022/07/05 10:14:20;;;;;;;3.22;1.45;;;23.40;39.20;;;23.09;35.55;98080.09;5010402;28;20050;-48
2022/07/05 10:17:01;;;;;;;3.25;1.48;;;23.50;37.70;;;23.18;36.20;98092.28;5010383;28;20042;-50
2022/07/05 10:19:40;;;;;;;1.75;1.40;;;23.50;38.20;;;23.08;33.50;98083.88;5009758;28;20061;-47
2022/07/05 10:22:11;;;;;;;2.38;1.58;;;23.60;35.10;;;23.11;33.95;98088.84;5008625;28;20083;-48
2022/07/05 10:24:46;;;;;;;3.45;1.70;;;23.50;36.00;;;23.18;34.63;98087.69;5008356;28;20058;-49
2022/07/05 10:27:16;;;;;;;3.50;1.92;;;23.50;36.30;;;23.24;34.28;98090.53;5009015;28;20058;-47
2022/07/05 10:29:44;;;;;;;1.33;1.13;;;23.70;36.20;;;23.36;34.44;98086.81;5007710;28;20061;-46
2022/07/05 10:32:15;;;;;;;2.67;1.33;;;23.80;36.50;;;23.49;34.85;98088.47;5008814;28;20054;-48
2022/07/05 10:34:46;;;;;;;3.25;1.60;;;23.90;36.60;;;23.55;34.10;98086.69;5007287;28;20046;-50
2022/07/05 10:37:28;;;;;;;2.10;1.95;;;24.00;35.20;;;23.40;33.29;98092.59;5009274;28;20050;-50
2022/07/05 10:40:00;;;;;;;1.58;1.48;;;23.90;34.80;;;23.55;34.19;98086.69;5010231;28;20050;-47
2022/07/05 10:43:00;;;;;;;1.58;1.25;;;24.00;36.10;;;23.66;34.49;98079.63;5007732;28;20269;-51
2022/07/05 10:45:32;;;;;;;4.43;1.65;;;24.10;35.80;;;23.73;33.79;98083.91;5007973;28;20064;-48